sensor_id;sensor_type;location;lat;lon;timestamp;temperature;humidity
67165;SHT31;54093;50.014;19.984;2022-11-25T00:07:56;0.92;94.54
67165;SHT31;54093;50.014;19.984;2022-11-25T00:17:16;0.96;94.59
67165;SHT31;54093;50.014;19.984;2022-11-25T00:26:37;0.96;94.58
67165;SHT31;54093;50.014;19.984;2022-11-25T00:36:03;1.02;94.51
67165;SHT31;54093;50.014;19.984;2022-11-25T00:45:24;1.03;94.39
67165;SHT31;54093;50.014;19.984;2022-11-25T00:54:45;1.05;94.33
67165;SHT31;54093;50.014;19.984;2022-11-25T01:04:07;1.08;94.22
67165;SHT31;54093;50.014;19.984;2022-11-25T01:13:28;1.10;94.24
67165;SHT31;54093;50.014;19.984;2022-11-25T01:22:50;1.12;94.14
67165;SHT31;54093;50.014;19.984;2022-11-25T01:32:11;1.10;94.05
67165;SHT31;54093;50.014;19.984;2022-11-25T01:41:33;1.13;94.10
67165;SHT31;54093;50.014;19.984;2022-11-25T01:50:54;1.19;94.19
67165;SHT31;54093;50.014;19.984;2022-11-25T02:00:15;1.22;94.02
67165;SHT31;54093;50.014;19.984;2022-11-25T02:09:38;1.26;94.01
67165;SHT31;54093;50.014;19.984;2022-11-25T02:19:01;1.29;93.89
67165;SHT31;54093;50.014;19.984;2022-11-25T02:28:26;1.27;93.53
67165;SHT31;54093;50.014;19.984;2022-11-25T02:37:47;1.22;93.71
67165;SHT31;54093;50.014;19.984;2022-11-25T02:47:07;1.26;93.78
67165;SHT31;54093;50.014;19.984;2022-11-25T02:56:31;1.26;93.73
67165;SHT31;54093;50.014;19.984;2022-11-25T03:05:52;1.32;93.95
67165;SHT31;54093;50.014;19.984;2022-11-25T03:15:13;1.35;93.67
67165;SHT31;54093;50.014;19.984;2022-11-25T03:24:33;1.32;93.62
67165;SHT31;54093;50.014;19.984;2022-11-25T03:33:54;1.35;93.83
67165;SHT31;54093;50.014;19.984;2022-11-25T03:43:15;1.42;93.89
67165;SHT31;54093;50.014;19.984;2022-11-25T03:52:36;1.46;93.86
67165;SHT31;54093;50.014;19.984;2022-11-25T04:01:57;1.44;93.91
67165;SHT31;54093;50.014;19.984;2022-11-25T04:11:18;1.54;94.08
67165;SHT31;54093;50.014;19.984;2022-11-25T04:20:39;1.61;94.19
67165;SHT31;54093;50.014;19.984;2022-11-25T04:30:00;1.66;94.36
67165;SHT31;54093;50.014;19.984;2022-11-25T04:39:21;1.75;94.37
67165;SHT31;54093;50.014;19.984;2022-11-25T04:48:42;1.75;94.17
67165;SHT31;54093;50.014;19.984;2022-11-25T04:58:03;1.75;94.05
67165;SHT31;54093;50.014;19.984;2022-11-25T05:07:25;1.73;94.08
67165;SHT31;54093;50.014;19.984;2022-11-25T05:16:46;1.75;94.05
67165;SHT31;54093;50.014;19.984;2022-11-25T05:26:07;1.75;94.10
67165;SHT31;54093;50.014;19.984;2022-11-25T05:35:28;1.75;94.14
67165;SHT31;54093;50.014;19.984;2022-11-25T05:44:48;1.78;94.23
67165;SHT31;54093;50.014;19.984;2022-11-25T05:54:10;1.82;94.37
67165;SHT31;54093;50.014;19.984;2022-11-25T06:03:30;1.87;94.64
67165;SHT31;54093;50.014;19.984;2022-11-25T06:12:51;1.91;94.76
67165;SHT31;54093;50.014;19.984;2022-11-25T06:22:13;1.98;94.85
67165;SHT31;54093;50.014;19.984;2022-11-25T06:31:34;2.01;94.87
67165;SHT31;54093;50.014;19.984;2022-11-25T06:41:01;2.02;94.90
67165;SHT31;54093;50.014;19.984;2022-11-25T06:50:23;2.05;94.92
67165;SHT31;54093;50.014;19.984;2022-11-25T06:59:44;2.09;95.01
67165;SHT31;54093;50.014;19.984;2022-11-25T07:09:05;2.14;95.02
67165;SHT31;54093;50.014;19.984;2022-11-25T07:18:36;2.18;95.01
67165;SHT31;54093;50.014;19.984;2022-11-25T07:27:58;2.22;95.01
67165;SHT31;54093;50.014;19.984;2022-11-25T07:37:19;2.25;95.06
67165;SHT31;54093;50.014;19.984;2022-11-25T07:46:42;2.35;95.09
67165;SHT31;54093;50.014;19.984;2022-11-25T07:56:04;2.37;95.18
67165;SHT31;54093;50.014;19.984;2022-11-25T08:05:25;2.44;95.33
67165;SHT31;54093;50.014;19.984;2022-11-25T08:14:45;2.50;95.37
67165;SHT31;54093;50.014;19.984;2022-11-25T08:24:08;2.58;95.53
67165;SHT31;54093;50.014;19.984;2022-11-25T08:33:33;2.64;95.50
67165;SHT31;54093;50.014;19.984;2022-11-25T08:42:54;2.67;95.48
67165;SHT31;54093;50.014;19.984;2022-11-25T08:52:15;2.73;95.51
67165;SHT31;54093;50.014;19.984;2022-11-25T09:11:19;2.80;95.38
67165;SHT31;54093;50.014;19.984;2022-11-25T09:20:40;2.84;95.30
67165;SHT31;54093;50.014;19.984;2022-11-25T09:30:01;2.85;95.32
67165;SHT31;54093;50.014;19.984;2022-11-25T09:39:22;2.94;95.42
67165;SHT31;54093;50.014;19.984;2022-11-25T09:49:02;3.04;95.48
67165;SHT31;54093;50.014;19.984;2022-11-25T09:58:34;3.12;95.50
67165;SHT31;54093;50.014;19.984;2022-11-25T10:08:02;3.25;95.49
67165;SHT31;54093;50.014;19.984;2022-11-25T10:27:00;3.44;95.54
67165;SHT31;54093;50.014;19.984;2022-11-25T10:36:29;3.58;95.75
67165;SHT31;54093;50.014;19.984;2022-11-25T10:55:32;3.67;95.24
67165;SHT31;54093;50.014;19.984;2022-11-25T11:04:59;3.74;95.10
67165;SHT31;54093;50.014;19.984;2022-11-25T11:14:21;3.83;95.05
67165;SHT31;54093;50.014;19.984;2022-11-25T11:23:49;3.94;94.99
67165;SHT31;54093;50.014;19.984;2022-11-25T11:43:25;4.14;94.91
67165;SHT31;54093;50.014;19.984;2022-11-25T11:53:10;4.25;94.77
67165;SHT31;54093;50.014;19.984;2022-11-25T12:11:54;4.45;94.55
67165;SHT31;54093;50.014;19.984;2022-11-25T12:31:10;4.66;94.16
67165;SHT31;54093;50.014;19.984;2022-11-25T12:40:46;4.75;93.85
67165;SHT31;54093;50.014;19.984;2022-11-25T12:50:15;4.76;93.57
67165;SHT31;54093;50.014;19.984;2022-11-25T13:00:15;4.79;93.37
67165;SHT31;54093;50.014;19.984;2022-11-25T13:10:02;4.81;93.16
67165;SHT31;54093;50.014;19.984;2022-11-25T13:19:26;4.83;93.20
67165;SHT31;54093;50.014;19.984;2022-11-25T13:28:47;4.83;93.07
67165;SHT31;54093;50.014;19.984;2022-11-25T13:47:51;4.84;93.31
67165;SHT31;54093;50.014;19.984;2022-11-25T13:57:20;4.84;93.29
67165;SHT31;54093;50.014;19.984;2022-11-25T14:16:41;4.83;93.16
67165;SHT31;54093;50.014;19.984;2022-11-25T14:26:08;4.75;92.78
67165;SHT31;54093;50.014;19.984;2022-11-25T14:35:35;4.69;92.61
67165;SHT31;54093;50.014;19.984;2022-11-25T14:44:56;4.60;92.55
67165;SHT31;54093;50.014;19.984;2022-11-25T14:54:20;4.55;92.52
67165;SHT31;54093;50.014;19.984;2022-11-25T15:03:45;4.55;92.59
67165;SHT31;54093;50.014;19.984;2022-11-25T15:13:42;4.52;92.69
67165;SHT31;54093;50.014;19.984;2022-11-25T15:23:03;4.49;92.80
67165;SHT31;54093;50.014;19.984;2022-11-25T15:32:30;4.48;92.78
67165;SHT31;54093;50.014;19.984;2022-11-25T15:42:02;4.38;92.61
67165;SHT31;54093;50.014;19.984;2022-11-25T16:19:51;4.14;92.22
67165;SHT31;54093;50.014;19.984;2022-11-25T16:29:15;4.12;92.14
67165;SHT31;54093;50.014;19.984;2022-11-25T16:38:36;4.05;92.02
67165;SHT31;54093;50.014;19.984;2022-11-25T16:47:57;4.08;92.50
67165;SHT31;54093;50.014;19.984;2022-11-25T16:57:20;4.04;92.38
67165;SHT31;54093;50.014;19.984;2022-11-25T17:06:41;4.02;92.31
67165;SHT31;54093;50.014;19.984;2022-11-25T17:16:04;4.01;92.18
67165;SHT31;54093;50.014;19.984;2022-11-25T17:25:26;3.97;92.23
67165;SHT31;54093;50.014;19.984;2022-11-25T17:34:47;3.94;92.34
67165;SHT31;54093;50.014;19.984;2022-11-25T17:44:17;3.89;92.32
67165;SHT31;54093;50.014;19.984;2022-11-25T17:53:40;3.86;92.44
67165;SHT31;54093;50.014;19.984;2022-11-25T18:03:01;3.84;92.74
67165;SHT31;54093;50.014;19.984;2022-11-25T18:12:26;3.83;92.66
67165;SHT31;54093;50.014;19.984;2022-11-25T18:21:48;3.83;92.52
67165;SHT31;54093;50.014;19.984;2022-11-25T18:31:21;3.79;92.58
67165;SHT31;54093;50.014;19.984;2022-11-25T18:40:43;3.80;92.44
67165;SHT31;54093;50.014;19.984;2022-11-25T18:50:15;3.76;92.74
67165;SHT31;54093;50.014;19.984;2022-11-25T18:59:36;3.77;92.93
67165;SHT31;54093;50.014;19.984;2022-11-25T19:08:57;3.79;92.99
67165;SHT31;54093;50.014;19.984;2022-11-25T19:18:23;3.79;93.50
67165;SHT31;54093;50.014;19.984;2022-11-25T19:27:49;3.94;93.99
67165;SHT31;54093;50.014;19.984;2022-11-25T19:37:16;4.05;94.26
67165;SHT31;54093;50.014;19.984;2022-11-25T19:46:47;4.18;94.46
67165;SHT31;54093;50.014;19.984;2022-11-25T19:56:15;4.18;94.45
67165;SHT31;54093;50.014;19.984;2022-11-25T20:05:37;4.21;94.65
67165;SHT31;54093;50.014;19.984;2022-11-25T20:14:58;4.27;94.72
67165;SHT31;54093;50.014;19.984;2022-11-25T20:24:19;4.32;94.64
67165;SHT31;54093;50.014;19.984;2022-11-25T20:33:40;4.39;94.68
67165;SHT31;54093;50.014;19.984;2022-11-25T20:43:01;4.41;94.58
67165;SHT31;54093;50.014;19.984;2022-11-25T20:52:29;4.44;94.26
67165;SHT31;54093;50.014;19.984;2022-11-25T21:01:50;4.39;94.22
67165;SHT31;54093;50.014;19.984;2022-11-25T21:11:12;4.39;94.17
67165;SHT31;54093;50.014;19.984;2022-11-25T21:20:33;4.44;94.10
67165;SHT31;54093;50.014;19.984;2022-11-25T21:29:53;4.44;94.06
67165;SHT31;54093;50.014;19.984;2022-11-25T21:39:28;4.38;93.85
67165;SHT31;54093;50.014;19.984;2022-11-25T21:48:49;4.35;93.65
67165;SHT31;54093;50.014;19.984;2022-11-25T21:58:18;4.29;93.59
67165;SHT31;54093;50.014;19.984;2022-11-25T22:07:40;4.24;93.51
67165;SHT31;54093;50.014;19.984;2022-11-25T22:17:05;4.24;93.48
67165;SHT31;54093;50.014;19.984;2022-11-25T22:26:31;4.24;93.44
67165;SHT31;54093;50.014;19.984;2022-11-25T22:35:52;4.20;93.56
67165;SHT31;54093;50.014;19.984;2022-11-25T22:45:28;4.15;93.50
67165;SHT31;54093;50.014;19.984;2022-11-25T22:54:50;4.15;93.46
67165;SHT31;54093;50.014;19.984;2022-11-25T23:04:18;4.12;93.38
67165;SHT31;54093;50.014;19.984;2022-11-25T23:13:39;4.11;93.42
67165;SHT31;54093;50.014;19.984;2022-11-25T23:23:22;4.12;93.36
67165;SHT31;54093;50.014;19.984;2022-11-25T23:32:42;4.11;93.23
67165;SHT31;54093;50.014;19.984;2022-11-25T23:42:09;4.04;93.09
67165;SHT31;54093;50.014;19.984;2022-11-25T23:51:34;3.98;93.21
